sensor_id;sensor_type;location;lat;lon;timestamp;pressure;altitude;pressure_sealevel;temperature;humidity
60479;BME280;46321;48.398;11.754;2023-05-03T00:01:59;97312.81;;;5.90;93.48
60479;BME280;46321;48.398;11.754;2023-05-03T00:04:26;97305.88;;;5.89;94.04
60479;BME280;46321;48.398;11.754;2023-05-03T00:06:51;97309.94;;;5.93;93.73
60479;BME280;46321;48.398;11.754;2023-05-03T00:09:17;97301.78;;;5.96;93.71
60479;BME280;46321;48.398;11.754;2023-05-03T00:11:42;97300.84;;;5.98;93.84
60479;BME280;46321;48.398;11.754;2023-05-03T00:14:07;97302.97;;;6.04;93.58
60479;BME280;46321;48.398;11.754;2023-05-03T00:16:32;97308.94;;;6.06;93.55
60479;BME280;46321;48.398;11.754;2023-05-03T00:18:58;97293.91;;;5.96;93.63
60479;BME280;46321;48.398;11.754;2023-05-03T00:21:23;97291.41;;;5.95;93.63
60479;BME280;46321;48.398;11.754;2023-05-03T00:23:48;97287.47;;;5.89;94.07
60479;BME280;46321;48.398;11.754;2023-05-03T00:26:14;97287.47;;;5.89;93.87
60479;BME280;46321;48.398;11.754;2023-05-03T00:28:40;97287.25;;;5.92;93.39
60479;BME280;46321;48.398;11.754;2023-05-03T00:31:06;97284.75;;;5.91;93.25
60479;BME280;46321;48.398;11.754;2023-05-03T00:33:32;97281.28;;;5.90;93.36
60479;BME280;46321;48.398;11.754;2023-05-03T00:35:57;97285.84;;;5.88;93.24
60479;BME280;46321;48.398;11.754;2023-05-03T00:38:23;97281.53;;;5.87;92.92
60479;BME280;46321;48.398;11.754;2023-05-03T00:40:54;97277.75;;;5.80;93.01
60479;BME280;46321;48.398;11.754;2023-05-03T00:43:20;97292.47;;;5.71;93.20
60479;BME280;46321;48.398;11.754;2023-05-03T00:45:45;97288.16;;;5.70;93.33
60479;BME280;46321;48.398;11.754;2023-05-03T00:48:11;97281.13;;;5.70;93.04
60479;BME280;46321;48.398;11.754;2023-05-03T00:50:37;97280.66;;;5.65;93.66
60479;BME280;46321;48.398;11.754;2023-05-03T00:53:03;97282.09;;;5.58;93.16
60479;BME280;46321;48.398;11.754;2023-05-03T00:55:29;97279.59;;;5.56;93.37
60479;BME280;46321;48.398;11.754;2023-05-03T00:57:56;97275.31;;;5.55;93.82
60479;BME280;46321;48.398;11.754;2023-05-03T01:00:22;97281.53;;;5.54;94.34
60479;BME280;46321;48.398;11.754;2023-05-03T01:02:48;97285.47;;;5.60;94.21
60479;BME280;46321;48.398;11.754;2023-05-03T01:05:14;97277.25;;;5.53;94.43
60479;BME280;46321;48.398;11.754;2023-05-03T01:07:59;97285.84;;;5.55;94.56
60479;BME280;46321;48.398;11.754;2023-05-03T01:10:41;97275.34;;;5.44;94.36
60479;BME280;46321;48.398;11.754;2023-05-03T01:13:27;97287.25;;;5.59;94.13
60479;BME280;46321;48.398;11.754;2023-05-03T01:18:36;97287.81;;;5.63;93.85
60479;BME280;46321;48.398;11.754;2023-05-03T01:21:04;97285.06;;;5.65;94.15
60479;BME280;46321;48.398;11.754;2023-05-03T01:23:39;97286.38;;;5.70;93.93
60479;BME280;46321;48.398;11.754;2023-05-03T01:28:44;97273.63;;;5.66;95.03
60479;BME280;46321;48.398;11.754;2023-05-03T01:31:09;97278.41;;;5.60;96.04
60479;BME280;46321;48.398;11.754;2023-05-03T01:33:39;97274.81;;;5.61;95.84
60479;BME280;46321;48.398;11.754;2023-05-03T01:36:12;97276.47;;;5.63;96.12
60479;BME280;46321;48.398;11.754;2023-05-03T01:38:40;97278.03;;;5.65;96.45
60479;BME280;46321;48.398;11.754;2023-05-03T01:41:09;97284.25;;;5.64;96.49
60479;BME280;46321;48.398;11.754;2023-05-03T01:43:35;97278.16;;;5.64;96.64
60479;BME280;46321;48.398;11.754;2023-05-03T01:46:02;97281.38;;;5.56;97.09
60479;BME280;46321;48.398;11.754;2023-05-03T01:48:27;97282.34;;;5.55;97.12
60479;BME280;46321;48.398;11.754;2023-05-03T01:50:52;97281.53;;;5.54;97.00
60479;BME280;46321;48.398;11.754;2023-05-03T01:53:18;97272.81;;;5.54;97.23
60479;BME280;46321;48.398;11.754;2023-05-03T01:55:44;97289.25;;;5.56;97.40
60479;BME280;46321;48.398;11.754;2023-05-03T01:58:09;97282.16;;;5.46;98.43
60479;BME280;46321;48.398;11.754;2023-05-03T02:00:34;97279.53;;;5.46;98.96
60479;BME280;46321;48.398;11.754;2023-05-03T02:03:00;97274.97;;;5.48;99.19
60479;BME280;46321;48.398;11.754;2023-05-03T02:05:25;97273.31;;;5.47;99.40
60479;BME280;46321;48.398;11.754;2023-05-03T02:07:50;97286.44;;;5.47;99.69
60479;BME280;46321;48.398;11.754;2023-05-03T02:10:16;97282.03;;;5.36;99.79
60479;BME280;46321;48.398;11.754;2023-05-03T02:12:41;97284.44;;;5.40;100.00
60479;BME280;46321;48.398;11.754;2023-05-03T02:15:07;97286.94;;;5.41;100.00
60479;BME280;46321;48.398;11.754;2023-05-03T02:17:33;97283.47;;;5.41;100.00
60479;BME280;46321;48.398;11.754;2023-05-03T02:19:59;97288.34;;;5.45;100.00
60479;BME280;46321;48.398;11.754;2023-05-03T02:22:24;97295.16;;;5.48;100.00
60479;BME280;46321;48.398;11.754;2023-05-03T02:24:49;97292.38;;;5.49;100.00
60479;BME280;46321;48.398;11.754;2023-05-03T02:27:15;97298.50;;;5.50;100.00
60479;BME280;46321;48.398;11.754;2023-05-03T02:29:40;97293.00;;;5.53;100.00
60479;BME280;46321;48.398;11.754;2023-05-03T02:32:05;97293.81;;;5.54;100.00
60479;BME280;46321;48.398;11.754;2023-05-03T02:34:31;97292.50;;;5.59;100.00
60479;BME280;46321;48.398;11.754;2023-05-03T02:36:57;97289.59;;;5.63;100.00
60479;BME280;46321;48.398;11.754;2023-05-03T02:39:22;97288.66;;;5.64;99.91
60479;BME280;46321;48.398;11.754;2023-05-03T02:41:47;97289.50;;;5.64;99.90
60479;BME280;46321;48.398;11.754;2023-05-03T02:44:13;97281.03;;;5.60;100.00
60479;BME280;46321;48.398;11.754;2023-05-03T02:46:38;97289.75;;;5.61;99.75
60479;BME280;46321;48.398;11.754;2023-05-03T02:49:06;97288.53;;;5.65;99.73
60479;BME280;46321;48.398;11.754;2023-05-03T02:51:31;97285.91;;;5.65;99.62
60479;BME280;46321;48.398;11.754;2023-05-03T02:53:56;97288.41;;;5.67;99.73
60479;BME280;46321;48.398;11.754;2023-05-03T02:56:21;97288.16;;;5.70;99.30
60479;BME280;46321;48.398;11.754;2023-05-03T02:58:47;97285.28;;;5.73;99.12
60479;BME280;46321;48.398;11.754;2023-05-03T03:01:12;97290.28;;;5.76;98.82
60479;BME280;46321;48.398;11.754;2023-05-03T03:03:37;97283.81;;;5.80;98.75
60479;BME280;46321;48.398;11.754;2023-05-03T03:06:02;97286.34;;;5.82;98.24
60479;BME280;46321;48.398;11.754;2023-05-03T03:08:28;97293.84;;;5.87;97.88
60479;BME280;46321;48.398;11.754;2023-05-03T03:10:53;97288.22;;;5.91;97.66
60479;BME280;46321;48.398;11.754;2023-05-03T03:13:18;97288.47;;;5.88;97.86
60479;BME280;46321;48.398;11.754;2023-05-03T03:15:43;97288.47;;;5.88;97.73
60479;BME280;46321;48.398;11.754;2023-05-03T03:18:09;97289.41;;;5.87;97.89
60479;BME280;46321;48.398;11.754;2023-05-03T03:20:35;97289.88;;;5.92;97.68
60479;BME280;46321;48.398;11.754;2023-05-03T03:23:00;97290.72;;;5.93;97.74
60479;BME280;46321;48.398;11.754;2023-05-03T03:25:25;97279.22;;;5.94;98.02
60479;BME280;46321;48.398;11.754;2023-05-03T03:27:51;97282.31;;;5.99;97.89
60479;BME280;46321;48.398;11.754;2023-05-03T03:30:16;97278.47;;;6.03;97.86
60479;BME280;46321;48.398;11.754;2023-05-03T03:32:41;97282.66;;;6.06;98.03
60479;BME280;46321;48.398;11.754;2023-05-03T03:35:08;97285.28;;;6.06;98.47
60479;BME280;46321;48.398;11.754;2023-05-03T03:37:33;97287.56;;;6.11;98.32
60479;BME280;46321;48.398;11.754;2023-05-03T03:39:59;97288.13;;;6.14;98.48
60479;BME280;46321;48.398;11.754;2023-05-03T03:42:24;97292.44;;;6.15;98.87
60479;BME280;46321;48.398;11.754;2023-05-03T03:44:50;97292.06;;;6.20;99.02
60479;BME280;46321;48.398;11.754;2023-05-03T03:47:15;97287.50;;;6.22;99.17
60479;BME280;46321;48.398;11.754;2023-05-03T03:49:40;97294.41;;;6.23;99.37
60479;BME280;46321;48.398;11.754;2023-05-03T03:52:05;97300.28;;;6.27;99.58
60479;BME280;46321;48.398;11.754;2023-05-03T03:54:31;97292.94;;;6.30;99.92
60479;BME280;46321;48.398;11.754;2023-05-03T03:56:56;97290.88;;;6.34;99.98
60479;BME280;46321;48.398;11.754;2023-05-03T03:59:22;97293.97;;;6.39;100.00
60479;BME280;46321;48.398;11.754;2023-05-03T04:01:47;97289.16;;;6.45;99.98
60479;BME280;46321;48.398;11.754;2023-05-03T04:04:13;97290.56;;;6.49;100.00
60479;BME280;46321;48.398;11.754;2023-05-03T04:06:38;97293.75;;;6.52;99.67
60479;BME280;46321;48.398;11.754;2023-05-03T04:09:05;97293.53;;;6.56;99.30
60479;BME280;46321;48.398;11.754;2023-05-03T04:11:30;97304.03;;;6.56;99.07
60479;BME280;46321;48.398;11.754;2023-05-03T04:13:55;97301.28;;;6.57;99.16
60479;BME280;46321;48.398;11.754;2023-05-03T04:16:21;97308.06;;;6.60;99.17
60479;BME280;46321;48.398;11.754;2023-05-03T04:18:46;97306.16;;;6.62;99.09
60479;BME280;46321;48.398;11.754;2023-05-03T04:21:11;97309.34;;;6.66;98.98
60479;BME280;46321;48.398;11.754;2023-05-03T04:23:37;97317.69;;;6.71;98.78
60479;BME280;46321;48.398;11.754;2023-05-03T04:26:02;97314.81;;;6.74;98.88
60479;BME280;46321;48.398;11.754;2023-05-03T04:28:27;97312.75;;;6.78;98.74
60479;BME280;46321;48.398;11.754;2023-05-03T04:30:53;97315.22;;;6.79;99.42
60479;BME280;46321;48.398;11.754;2023-05-03T04:33:19;97320.25;;;6.82;99.71
60479;BME280;46321;48.398;11.754;2023-05-03T04:35:48;97314.19;;;6.92;100.00
60479;BME280;46321;48.398;11.754;2023-05-03T04:38:14;97324.44;;;6.95;100.00
60479;BME280;46321;48.398;11.754;2023-05-03T04:40:39;97326.69;;;6.99;100.00
60479;BME280;46321;48.398;11.754;2023-05-03T04:43:05;97322.97;;;7.02;100.00
60479;BME280;46321;48.398;11.754;2023-05-03T04:45:30;97323.53;;;7.06;100.00
60479;BME280;46321;48.398;11.754;2023-05-03T04:47:55;97330.06;;;7.12;100.00
60479;BME280;46321;48.398;11.754;2023-05-03T04:50:20;97331.47;;;7.16;100.00
60479;BME280;46321;48.398;11.754;2023-05-03T04:52:46;97336.47;;;7.19;100.00
60479;BME280;46321;48.398;11.754;2023-05-03T04:55:12;97338.00;;;7.21;100.00
60479;BME280;46321;48.398;11.754;2023-05-03T04:57:38;97333.16;;;7.27;100.00
60479;BME280;46321;48.398;11.754;2023-05-03T05:00:03;97333.63;;;7.32;100.00
60479;BME280;46321;48.398;11.754;2023-05-03T05:02:34;97336.81;;;7.36;100.00
60479;BME280;46321;48.398;11.754;2023-05-03T05:05:00;97340.84;;;7.40;100.00
60479;BME280;46321;48.398;11.754;2023-05-03T05:07:25;97331.97;;;7.41;100.00
60479;BME280;46321;48.398;11.754;2023-05-03T05:09:51;97338.38;;;7.48;100.00
60479;BME280;46321;48.398;11.754;2023-05-03T05:12:17;97343.22;;;7.53;100.00
60479;BME280;46321;48.398;11.754;2023-05-03T05:14:43;97354.75;;;7.52;99.82
60479;BME280;46321;48.398;11.754;2023-05-03T05:17:08;97350.16;;;7.54;99.31
60479;BME280;46321;48.398;11.754;2023-05-03T05:19:33;97356.00;;;7.58;99.47
60479;BME280;46321;48.398;11.754;2023-05-03T05:21:59;97349.47;;;7.62;99.13
60479;BME280;46321;48.398;11.754;2023-05-03T05:24:25;97352.00;;;7.63;98.77
60479;BME280;46321;48.398;11.754;2023-05-03T05:26:50;97355.03;;;7.59;98.92
60479;BME280;46321;48.398;11.754;2023-05-03T05:29:15;97371.00;;;7.57;99.13
60479;BME280;46321;48.398;11.754;2023-05-03T05:31:41;97353.53;;;7.66;98.79
60479;BME280;46321;48.398;11.754;2023-05-03T05:34:06;97363.09;;;7.67;98.47
60479;BME280;46321;48.398;11.754;2023-05-03T05:36:32;97367.81;;;7.73;98.58
60479;BME280;46321;48.398;11.754;2023-05-03T05:38:57;97367.41;;;7.78;98.26
60479;BME280;46321;48.398;11.754;2023-05-03T05:41:22;97368.81;;;7.72;98.42
60479;BME280;46321;48.398;11.754;2023-05-03T05:43:47;97375.22;;;7.79;98.06
60479;BME280;46321;48.398;11.754;2023-05-03T05:46:13;97370.63;;;7.82;97.93
60479;BME280;46321;48.398;11.754;2023-05-03T05:48:40;97369.66;;;7.83;97.71
60479;BME280;46321;48.398;11.754;2023-05-03T05:51:05;97371.03;;;7.87;97.82
60479;BME280;46321;48.398;11.754;2023-05-03T05:53:31;97370.78;;;7.90;97.34
60479;BME280;46321;48.398;11.754;2023-05-03T05:55:56;97377.44;;;7.94;97.19
60479;BME280;46321;48.398;11.754;2023-05-03T05:58:21;97375.25;;;7.99;96.84
60479;BME280;46321;48.398;11.754;2023-05-03T06:00:47;97378.56;;;8.01;96.83
60479;BME280;46321;48.398;11.754;2023-05-03T06:03:13;97379.53;;;8.10;96.37
60479;BME280;46321;48.398;11.754;2023-05-03T06:05:38;97376.63;;;8.13;95.60
60479;BME280;46321;48.398;11.754;2023-05-03T06:08:04;97386.09;;;8.26;95.55
60479;BME280;46321;48.398;11.754;2023-05-03T06:10:30;97387.31;;;8.32;95.25
60479;BME280;46321;48.398;11.754;2023-05-03T06:12:55;97387.59;;;8.39;95.08
60479;BME280;46321;48.398;11.754;2023-05-03T06:15:20;97382.44;;;8.47;94.98
60479;BME280;46321;48.398;11.754;2023-05-03T06:17:46;97381.75;;;8.55;94.45
60479;BME280;46321;48.398;11.754;2023-05-03T06:20:11;97377.19;;;8.57;94.34
60479;BME280;46321;48.398;11.754;2023-05-03T06:22:37;97388.69;;;8.56;94.67
60479;BME280;46321;48.398;11.754;2023-05-03T06:25:02;97387.50;;;8.60;93.59
60479;BME280;46321;48.398;11.754;2023-05-03T06:27:28;97386.66;;;8.59;93.72
60479;BME280;46321;48.398;11.754;2023-05-03T06:29:53;97389.56;;;8.66;93.59
60479;BME280;46321;48.398;11.754;2023-05-03T06:32:18;97383.72;;;8.73;93.36
60479;BME280;46321;48.398;11.754;2023-05-03T06:34:45;97393.00;;;8.77;92.94
60479;BME280;46321;48.398;11.754;2023-05-03T06:37:10;97394.81;;;8.86;93.02
60479;BME280;46321;48.398;11.754;2023-05-03T06:39:36;97388.69;;;8.86;92.97
60479;BME280;46321;48.398;11.754;2023-05-03T06:42:01;97391.06;;;8.89;91.98
60479;BME280;46321;48.398;11.754;2023-05-03T06:44:27;97393.00;;;8.87;92.18
60479;BME280;46321;48.398;11.754;2023-05-03T06:46:52;97395.91;;;8.93;91.87
60479;BME280;46321;48.398;11.754;2023-05-03T06:49:18;97389.50;;;8.96;92.34
60479;BME280;46321;48.398;11.754;2023-05-03T06:51:43;97392.44;;;8.93;92.71
60479;BME280;46321;48.398;11.754;2023-05-03T06:54:08;97389.66;;;8.95;93.28
60479;BME280;46321;48.398;11.754;2023-05-03T06:56:37;97390.44;;;9.05;92.83
60479;BME280;46321;48.398;11.754;2023-05-03T06:59:02;97391.16;;;9.07;92.40
60479;BME280;46321;48.398;11.754;2023-05-03T07:01:29;97389.59;;;9.14;92.05
60479;BME280;46321;48.398;11.754;2023-05-03T07:03:55;97391.53;;;9.22;91.78
60479;BME280;46321;48.398;11.754;2023-05-03T07:06:20;97389.81;;;9.31;91.26
60479;BME280;46321;48.398;11.754;2023-05-03T07:08:51;97386.88;;;9.34;91.16
60479;BME280;46321;48.398;11.754;2023-05-03T07:11:17;97385.66;;;9.28;91.54
60479;BME280;46321;48.398;11.754;2023-05-03T07:13:43;97381.59;;;9.34;90.88
60479;BME280;46321;48.398;11.754;2023-05-03T07:16:08;97387.00;;;9.43;90.76
60479;BME280;46321;48.398;11.754;2023-05-03T07:18:33;97374.16;;;9.48;90.64
60479;BME280;46321;48.398;11.754;2023-05-03T07:20:59;97375.25;;;9.55;90.77
60479;BME280;46321;48.398;11.754;2023-05-03T07:23:30;97374.06;;;9.39;89.53
60479;BME280;46321;48.398;11.754;2023-05-03T07:25:55;97375.31;;;9.45;89.59
60479;BME280;46321;48.398;11.754;2023-05-03T07:28:20;97371.25;;;9.51;89.61
60479;BME280;46321;48.398;11.754;2023-05-03T07:30:46;97380.63;;;9.64;90.04
60479;BME280;46321;48.398;11.754;2023-05-03T07:33:11;97382.69;;;9.70;90.37
60479;BME280;46321;48.398;11.754;2023-05-03T07:35:36;97372.06;;;9.80;90.11
60479;BME280;46321;48.398;11.754;2023-05-03T07:38:01;97373.13;;;9.87;90.10
60479;BME280;46321;48.398;11.754;2023-05-03T07:40:27;97374.50;;;9.91;90.03
60479;BME280;46321;48.398;11.754;2023-05-03T07:42:56;97375.16;;;9.93;89.89
60479;BME280;46321;48.398;11.754;2023-05-03T07:45:21;97380.53;;;10.02;90.69
60479;BME280;46321;48.398;11.754;2023-05-03T07:47:47;97379.25;;;10.06;90.17
60479;BME280;46321;48.398;11.754;2023-05-03T07:50:12;97373.69;;;10.09;89.50
60479;BME280;46321;48.398;11.754;2023-05-03T07:52:38;97373.00;;;10.25;89.50
60479;BME280;46321;48.398;11.754;2023-05-03T07:55:04;97367.38;;;10.28;88.90
60479;BME280;46321;48.398;11.754;2023-05-03T07:57:31;97369.47;;;10.35;88.41
60479;BME280;46321;48.398;11.754;2023-05-03T07:59:57;97367.31;;;10.38;88.78
60479;BME280;46321;48.398;11.754;2023-05-03T08:02:22;97360.28;;;10.47;87.02
60479;BME280;46321;48.398;11.754;2023-05-03T08:04:47;97358.41;;;10.39;87.12
60479;BME280;46321;48.398;11.754;2023-05-03T08:07:13;97359.03;;;10.51;86.19
60479;BME280;46321;48.398;11.754;2023-05-03T08:09:38;97358.78;;;10.63;86.32
60479;BME280;46321;48.398;11.754;2023-05-03T08:12:04;97365.97;;;10.71;85.97
60479;BME280;46321;48.398;11.754;2023-05-03T08:14:29;97360.09;;;10.85;86.01
60479;BME280;46321;48.398;11.754;2023-05-03T08:16:54;97362.28;;;10.90;85.93
60479;BME280;46321;48.398;11.754;2023-05-03T08:19:20;97357.69;;;11.01;85.61
60479;BME280;46321;48.398;11.754;2023-05-03T08:21:45;97354.75;;;11.04;85.85
60479;BME280;46321;48.398;11.754;2023-05-03T08:24:13;97358.31;;;10.94;85.66
60479;BME280;46321;48.398;11.754;2023-05-03T08:26:39;97363.31;;;10.71;85.79
60479;BME280;46321;48.398;11.754;2023-05-03T08:29:05;97361.91;;;10.85;85.57
60479;BME280;46321;48.398;11.754;2023-05-03T08:31:30;97361.66;;;10.70;85.26
60479;BME280;46321;48.398;11.754;2023-05-03T08:33:56;97364.75;;;10.65;85.90
60479;BME280;46321;48.398;11.754;2023-05-03T08:36:21;97365.25;;;10.69;85.35
60479;BME280;46321;48.398;11.754;2023-05-03T08:38:47;97361.72;;;10.60;84.63
60479;BME280;46321;48.398;11.754;2023-05-03T08:41:21;97372.06;;;10.71;84.26
60479;BME280;46321;48.398;11.754;2023-05-03T08:43:54;97368.91;;;10.68;85.29
60479;BME280;46321;48.398;11.754;2023-05-03T08:46:21;97375.25;;;10.75;84.74
60479;BME280;46321;48.398;11.754;2023-05-03T08:48:47;97376.34;;;10.64;84.48
60479;BME280;46321;48.398;11.754;2023-05-03T08:51:14;97375.78;;;10.79;84.27
60479;BME280;46321;48.398;11.754;2023-05-03T08:53:40;97367.78;;;10.70;84.53
60479;BME280;46321;48.398;11.754;2023-05-03T08:56:07;97375.72;;;10.70;84.07
60479;BME280;46321;48.398;11.754;2023-05-03T08:58:35;97370.84;;;10.84;83.62
60479;BME280;46321;48.398;11.754;2023-05-03T09:01:05;97369.91;;;10.93;83.65
60479;BME280;46321;48.398;11.754;2023-05-03T09:03:31;97380.22;;;11.05;83.13
60479;BME280;46321;48.398;11.754;2023-05-03T09:05:57;97370.00;;;10.83;82.45
60479;BME280;46321;48.398;11.754;2023-05-03T09:08:29;97377.13;;;10.83;83.35
60479;BME280;46321;48.398;11.754;2023-05-03T09:10:56;97381.19;;;10.95;83.84
60479;BME280;46321;48.398;11.754;2023-05-03T09:13:28;97381.38;;;11.02;83.22
60479;BME280;46321;48.398;11.754;2023-05-03T09:15:55;97388.06;;;11.06;82.60
60479;BME280;46321;48.398;11.754;2023-05-03T09:18:21;97387.47;;;10.94;82.91
60479;BME280;46321;48.398;11.754;2023-05-03T09:20:48;97385.31;;;10.98;82.99
60479;BME280;46321;48.398;11.754;2023-05-03T09:23:18;97384.72;;;11.04;83.63
60479;BME280;46321;48.398;11.754;2023-05-03T09:25:56;97389.47;;;11.01;83.17
60479;BME280;46321;48.398;11.754;2023-05-03T09:28:21;97388.38;;;11.11;82.36
60479;BME280;46321;48.398;11.754;2023-05-03T09:30:48;97389.72;;;11.16;82.17
60479;BME280;46321;48.398;11.754;2023-05-03T09:33:13;97387.28;;;11.22;81.75
60479;BME280;46321;48.398;11.754;2023-05-03T09:36:05;97384.91;;;11.38;80.29
60479;BME280;46321;48.398;11.754;2023-05-03T09:38:33;97379.44;;;11.39;80.41
60479;BME280;46321;48.398;11.754;2023-05-03T09:40:59;97378.28;;;11.42;80.71
60479;BME280;46321;48.398;11.754;2023-05-03T09:43:25;97369.50;;;11.41;82.18
60479;BME280;46321;48.398;11.754;2023-05-03T09:45:51;97375.78;;;11.40;81.35
60479;BME280;46321;48.398;11.754;2023-05-03T09:48:17;97376.03;;;11.55;81.35
60479;BME280;46321;48.398;11.754;2023-05-03T09:50:47;97381.34;;;11.64;80.45
60479;BME280;46321;48.398;11.754;2023-05-03T09:53:14;97382.41;;;11.79;80.48
60479;BME280;46321;48.398;11.754;2023-05-03T09:55:40;97369.50;;;11.93;80.05
60479;BME280;46321;48.398;11.754;2023-05-03T09:58:06;97389.78;;;12.02;79.62
60479;BME280;46321;48.398;11.754;2023-05-03T10:00:41;97374.25;;;12.16;79.30
60479;BME280;46321;48.398;11.754;2023-05-03T10:03:13;97364.75;;;12.05;77.61
60479;BME280;46321;48.398;11.754;2023-05-03T10:05:46;97372.75;;;12.30;77.63
60479;BME280;46321;48.398;11.754;2023-05-03T10:08:18;97366.28;;;12.33;75.51
60479;BME280;46321;48.398;11.754;2023-05-03T10:10:48;97363.13;;;12.21;74.60
60479;BME280;46321;48.398;11.754;2023-05-03T10:13:16;97365.28;;;12.51;75.50
60479;BME280;46321;48.398;11.754;2023-05-03T10:15:42;97358.47;;;12.73;76.06
60479;BME280;46321;48.398;11.754;2023-05-03T10:18:12;97356.81;;;12.80;76.62
60479;BME280;46321;48.398;11.754;2023-05-03T10:20:49;97361.94;;;12.99;76.33
60479;BME280;46321;48.398;11.754;2023-05-03T10:23:18;97359.56;;;13.21;75.40
60479;BME280;46321;48.398;11.754;2023-05-03T10:28:36;97344.81;;;13.90;73.21
60479;BME280;46321;48.398;11.754;2023-05-03T10:31:01;97345.97;;;14.97;72.88
60479;BME280;46321;48.398;11.754;2023-05-03T10:35:55;97340.56;;;16.25;65.26
60479;BME280;46321;48.398;11.754;2023-05-03T10:38:24;97348.31;;;15.45;66.25
60479;BME280;46321;48.398;11.754;2023-05-03T10:40:51;97338.22;;;16.37;65.99
60479;BME280;46321;48.398;11.754;2023-05-03T10:48:22;97333.63;;;16.53;60.71
60479;BME280;46321;48.398;11.754;2023-05-03T10:50:48;97344.88;;;15.52;62.52
60479;BME280;46321;48.398;11.754;2023-05-03T10:56:02;97331.13;;;16.51;59.72
60479;BME280;46321;48.398;11.754;2023-05-03T10:58:41;97332.31;;;16.99;61.63
60479;BME280;46321;48.398;11.754;2023-05-03T11:01:09;97334.09;;;17.21;59.57
60479;BME280;46321;48.398;11.754;2023-05-03T11:09:00;97336.16;;;16.61;59.00
60479;BME280;46321;48.398;11.754;2023-05-03T11:11:27;97327.03;;;16.48;59.36
60479;BME280;46321;48.398;11.754;2023-05-03T11:13:52;97325.88;;;16.36;59.17
60479;BME280;46321;48.398;11.754;2023-05-03T11:16:18;97323.84;;;16.38;59.21
60479;BME280;46321;48.398;11.754;2023-05-03T11:18:44;97316.81;;;16.59;59.19
60479;BME280;46321;48.398;11.754;2023-05-03T11:21:10;97316.34;;;16.77;59.87
60479;BME280;46321;48.398;11.754;2023-05-03T11:23:37;97315.94;;;17.09;61.36
60479;BME280;46321;48.398;11.754;2023-05-03T11:26:05;97312.72;;;17.27;61.20
60479;BME280;46321;48.398;11.754;2023-05-03T11:28:30;97310.66;;;17.23;57.64
60479;BME280;46321;48.398;11.754;2023-05-03T11:30:56;97307.44;;;17.41;57.78
60479;BME280;46321;48.398;11.754;2023-05-03T11:33:21;97303.16;;;17.47;57.40
60479;BME280;46321;48.398;11.754;2023-05-03T11:35:47;97314.31;;;17.15;58.36
60479;BME280;46321;48.398;11.754;2023-05-03T11:38:12;97310.38;;;17.53;58.47
60479;BME280;46321;48.398;11.754;2023-05-03T11:40:38;97304.91;;;16.90;59.29
60479;BME280;46321;48.398;11.754;2023-05-03T11:43:04;97295.34;;;17.52;57.23
60479;BME280;46321;48.398;11.754;2023-05-03T11:45:43;97295.72;;;17.42;54.97
60479;BME280;46321;48.398;11.754;2023-05-03T11:48:11;97295.84;;;17.69;53.73
60479;BME280;46321;48.398;11.754;2023-05-03T11:50:47;97298.56;;;16.98;53.07
60479;BME280;46321;48.398;11.754;2023-05-03T11:53:15;97293.81;;;16.93;54.41
60479;BME280;46321;48.398;11.754;2023-05-03T11:55:43;97287.47;;;17.37;53.97
60479;BME280;46321;48.398;11.754;2023-05-03T11:58:14;97293.06;;;17.42;54.63
60479;BME280;46321;48.398;11.754;2023-05-03T12:00:47;97298.13;;;16.94;55.14
60479;BME280;46321;48.398;11.754;2023-05-03T12:03:22;97292.97;;;16.35;56.78
60479;BME280;46321;48.398;11.754;2023-05-03T12:05:48;97287.84;;;16.34;57.01
60479;BME280;46321;48.398;11.754;2023-05-03T12:08:15;97292.41;;;16.40;57.83
60479;BME280;46321;48.398;11.754;2023-05-03T12:10:42;97289.09;;;16.38;57.35
60479;BME280;46321;48.398;11.754;2023-05-03T12:13:07;97284.66;;;16.01;58.01
60479;BME280;46321;48.398;11.754;2023-05-03T12:15:35;97286.22;;;15.96;59.41
60479;BME280;46321;48.398;11.754;2023-05-03T12:18:06;97284.72;;;16.30;58.03
60479;BME280;46321;48.398;11.754;2023-05-03T12:20:32;97277.34;;;16.61;56.57
60479;BME280;46321;48.398;11.754;2023-05-03T12:23:01;97285.72;;;16.80;57.05
60479;BME280;46321;48.398;11.754;2023-05-03T12:25:28;97270.53;;;16.87;55.67
60479;BME280;46321;48.398;11.754;2023-05-03T12:27:56;97279.88;;;17.05;57.17
60479;BME280;46321;48.398;11.754;2023-05-03T12:30:22;97275.69;;;17.24;54.35
60479;BME280;46321;48.398;11.754;2023-05-03T12:32:48;97270.19;;;17.39;52.95
60479;BME280;46321;48.398;11.754;2023-05-03T12:35:13;97269.38;;;17.46;51.70
60479;BME280;46321;48.398;11.754;2023-05-03T12:37:39;97266.53;;;17.12;52.13
60479;BME280;46321;48.398;11.754;2023-05-03T12:40:05;97266.25;;;16.93;51.10
60479;BME280;46321;48.398;11.754;2023-05-03T12:42:30;97263.84;;;16.69;52.25
60479;BME280;46321;48.398;11.754;2023-05-03T12:44:57;97261.22;;;16.47;55.79
60479;BME280;46321;48.398;11.754;2023-05-03T12:47:22;97255.59;;;16.64;53.54
60479;BME280;46321;48.398;11.754;2023-05-03T12:49:48;97259.03;;;16.29;54.98
60479;BME280;46321;48.398;11.754;2023-05-03T12:52:13;97265.53;;;16.20;54.36
60479;BME280;46321;48.398;11.754;2023-05-03T12:54:38;97261.47;;;16.53;54.57
60479;BME280;46321;48.398;11.754;2023-05-03T12:57:05;97252.56;;;16.74;54.59
60479;BME280;46321;48.398;11.754;2023-05-03T12:59:30;97250.59;;;16.90;55.16
60479;BME280;46321;48.398;11.754;2023-05-03T13:01:56;97246.75;;;16.99;54.05
60479;BME280;46321;48.398;11.754;2023-05-03T13:04:21;97249.06;;;16.74;55.38
60479;BME280;46321;48.398;11.754;2023-05-03T13:06:47;97242.84;;;17.02;55.00
60479;BME280;46321;48.398;11.754;2023-05-03T13:09:14;97232.44;;;17.21;54.84
60479;BME280;46321;48.398;11.754;2023-05-03T13:11:41;97242.00;;;17.01;53.42
60479;BME280;46321;48.398;11.754;2023-05-03T13:14:06;97243.50;;;17.11;53.26
60479;BME280;46321;48.398;11.754;2023-05-03T13:16:32;97233.41;;;17.06;52.98